Time;durP1;ratioP1;P1;durP2;ratioP2;P2;SDS_P1;SDS_P2;PMS_P1;PMS_P2;Temp;Humidity;BMP_temperature;BMP_pressure;BME280_temperature;BME280_humidity;BME280_pressure;Samples;Min_cycle;Max_cycle;Signal;HPM_P1;HPM_P2
2023/06/12 00:01:05;;;;;;;6.30;5.80;;;17.20;99.90;;;;;;5018883;28;20271;-39
2023/06/12 00:03:31;;;;;;;6.67;6.07;;;17.20;99.90;;;;;;5005479;28;20291;-41
2023/06/12 00:05:58;;;;;;;6.93;6.23;;;17.10;99.90;;;;;;5017115;28;20204;-39
2023/06/12 00:08:27;;;;;;;6.40;5.90;;;17.00;99.90;;;;;;4996160;28;20239;-40
2023/06/12 00:10:53;;;;;;;6.23;5.63;;;17.00;99.90;;;;;;5003590;28;20184;-37
2023/06/12 00:13:19;;;;;;;6.80;6.10;;;17.00;99.90;;;;;;5008238;28;20172;-38
2023/06/12 00:15:45;;;;;;;6.50;5.90;;;17.00;99.90;;;;;;4979747;28;20178;-40
2023/06/12 00:18:12;;;;;;;6.90;6.20;;;16.90;99.90;;;;;;5010300;28;20233;-40
2023/06/12 00:20:38;;;;;;;6.73;6.13;;;16.90;99.90;;;;;;5013050;28;20293;-40
2023/06/12 00:23:04;;;;;;;7.07;6.37;;;16.90;99.90;;;;;;5013006;28;20215;-36
2023/06/12 00:25:30;;;;;;;7.10;6.23;;;16.90;99.90;;;;;;4997545;28;20216;-41
2023/06/12 00:27:56;;;;;;;6.60;6.03;;;16.80;99.90;;;;;;5019289;28;20216;-42
2023/06/12 00:30:22;;;;;;;7.20;6.50;;;16.70;99.90;;;;;;5002710;28;20190;-42
2023/06/12 00:32:47;;;;;;;7.93;6.10;;;16.70;99.90;;;;;;4980502;28;20182;-41
2023/06/12 00:35:18;;;;;;;6.27;5.67;;;16.70;99.90;;;;;;4991069;28;20180;-40
2023/06/12 00:37:45;;;;;;;7.50;6.13;;;16.60;99.90;;;;;;5005504;28;20202;-39
2023/06/12 00:40:13;;;;;;;6.73;6.00;;;16.60;99.90;;;;;;4994170;28;20299;-39
2023/06/12 00:42:48;;;;;;;7.20;6.13;;;16.50;99.90;;;;;;5020804;28;20180;-40
2023/06/12 00:45:15;;;;;;;6.77;6.10;;;16.50;99.90;;;;;;4983548;28;20183;-40
2023/06/12 00:47:45;;;;;;;6.50;5.93;;;16.50;99.90;;;;;;4993757;28;20218;-39
2023/06/12 00:50:12;;;;;;;6.77;6.17;;;16.40;99.90;;;;;;4992019;28;20180;-41
2023/06/12 00:52:45;;;;;;;6.50;5.90;;;16.40;99.90;;;;;;4994486;28;20187;-39
2023/06/12 00:55:11;;;;;;;7.07;6.43;;;16.40;99.90;;;;;;5007370;28;20180;-41
2023/06/12 00:57:38;;;;;;;6.27;5.73;;;16.30;99.90;;;;;;4996815;28;20253;-40
2023/06/12 01:00:07;;;;;;;7.10;6.40;;;16.30;99.90;;;;;;4990949;28;20188;-41
2023/06/12 01:02:42;;;;;;;6.70;6.10;;;16.30;99.90;;;;;;4994137;28;20218;-40
2023/06/12 01:05:17;;;;;;;7.00;6.40;;;16.30;99.90;;;;;;4986131;28;20187;-39
2023/06/12 01:08:26;;;;;;;6.60;6.00;;;16.20;99.90;;;;;;4996565;28;20207;-41
2023/06/12 01:11:08;;;;;;;6.50;5.90;;;16.20;99.90;;;;;;4981326;28;20188;-39
2023/06/12 01:13:35;;;;;;;6.70;6.00;;;16.10;99.90;;;;;;4994042;28;20186;-40
2023/06/12 01:16:01;;;;;;;7.07;6.37;;;16.10;99.90;;;;;;4991936;28;20195;-38
2023/06/12 01:18:29;;;;;;;7.23;6.50;;;16.10;99.90;;;;;;5001667;28;20183;-38
2023/06/12 01:20:58;;;;;;;6.90;6.20;;;16.00;99.90;;;;;;5009809;28;20278;-41
2023/06/12 01:23:49;;;;;;;6.60;5.90;;;16.00;99.90;;;;;;4992306;28;20190;-38
2023/06/12 01:26:27;;;;;;;7.33;6.63;;;15.90;99.90;;;;;;4990544;28;20274;-41
2023/06/12 01:29:18;;;;;;;7.03;6.43;;;15.90;99.90;;;;;;5008848;28;20175;-41
2023/06/12 01:31:56;;;;;;;6.87;6.27;;;15.80;99.90;;;;;;4992777;28;20184;-42
2023/06/12 01:34:32;;;;;;;6.80;6.20;;;15.70;99.90;;;;;;5017906;28;20182;-41
2023/06/12 01:37:17;;;;;;;7.33;6.53;;;15.70;99.90;;;;;;5007940;28;20199;-41
2023/06/12 01:39:55;;;;;;;6.73;6.13;;;15.70;99.90;;;;;;5005027;28;20270;-42
2023/06/12 01:42:23;;;;;;;7.13;6.53;;;15.70;99.90;;;;;;4999866;28;20318;-40
2023/06/12 01:44:52;;;;;;;6.97;6.37;;;15.70;99.90;;;;;;5018397;28;20187;-39
2023/06/12 01:47:22;;;;;;;7.33;6.57;;;15.60;99.90;;;;;;5014673;28;20223;-41
2023/06/12 01:49:50;;;;;;;7.83;6.70;;;15.60;99.90;;;;;;5018097;28;20196;-37
2023/06/12 01:52:16;;;;;;;8.07;7.10;;;15.60;99.90;;;;;;5006753;28;20234;-37
2023/06/12 01:54:45;;;;;;;6.90;6.30;;;15.60;99.90;;;;;;4995209;28;20179;-40
2023/06/12 01:57:11;;;;;;;7.53;6.70;;;15.60;99.90;;;;;;5007629;28;20210;-37
2023/06/12 01:59:40;;;;;;;7.17;6.43;;;15.60;99.90;;;;;;5017204;28;20293;-40
2023/06/12 02:02:06;;;;;;;7.93;7.13;;;15.40;99.90;;;;;;5001591;28;20176;-40
2023/06/12 02:04:32;;;;;;;7.87;6.90;;;15.40;99.90;;;;;;4997179;28;20238;-41
2023/06/12 02:07:00;;;;;;;7.53;6.83;;;15.40;99.90;;;;;;4991456;28;20211;-40
2023/06/12 02:09:29;;;;;;;7.83;7.03;;;15.40;99.90;;;;;;5009294;28;20175;-37
2023/06/12 02:11:55;;;;;;;7.90;7.10;;;15.40;99.90;;;;;;4977659;28;20180;-41
2023/06/12 02:14:23;;;;;;;7.03;6.40;;;15.30;99.90;;;;;;4998897;28;20240;-41
2023/06/12 02:16:53;;;;;;;7.40;6.70;;;15.30;99.90;;;;;;4992398;28;20210;-40
2023/06/12 02:19:25;;;;;;;7.67;6.97;;;15.30;99.90;;;;;;4984696;28;20183;-40
2023/06/12 02:21:55;;;;;;;7.27;6.50;;;15.30;99.90;;;;;;5002396;28;20183;-42
2023/06/12 02:24:25;;;;;;;6.90;6.30;;;15.20;99.90;;;;;;4982304;28;20187;-41
2023/06/12 02:26:52;;;;;;;7.20;6.50;;;15.10;99.90;;;;;;4992758;28;20717;-40
2023/06/12 02:29:18;;;;;;;7.30;6.60;;;15.10;99.90;;;;;;4990389;28;20179;-41
2023/06/12 02:31:49;;;;;;;6.60;6.00;;;15.10;99.90;;;;;;5004189;28;20183;-39
2023/06/12 02:34:15;;;;;;;7.60;6.00;;;15.10;99.90;;;;;;4998682;28;20190;-41
2023/06/12 02:36:42;;;;;;;7.50;6.60;;;15.00;99.90;;;;;;4981015;28;20199;-41
2023/06/12 02:39:14;;;;;;;8.10;6.33;;;14.90;99.90;;;;;;4997796;28;20192;-38
2023/06/12 02:41:47;;;;;;;6.90;6.30;;;14.80;99.90;;;;;;5011935;28;20187;-35
2023/06/12 02:44:14;;;;;;;7.17;6.40;;;14.80;99.90;;;;;;4989739;28;20187;-39
2023/06/12 02:47:13;;;;;;;7.33;6.63;;;14.70;99.90;;;;;;4992197;28;20218;-42
2023/06/12 02:49:44;;;;;;;8.23;6.53;;;14.70;99.90;;;;;;4985517;28;20190;-35
2023/06/12 02:52:12;;;;;;;7.50;6.80;;;14.70;99.90;;;;;;5002849;28;20225;-39
2023/06/12 02:54:38;;;;;;;7.23;6.63;;;14.60;99.90;;;;;;5003061;28;20183;-39
2023/06/12 02:57:05;;;;;;;8.17;6.67;;;14.60;99.90;;;;;;4978713;28;20199;-38
2023/06/12 02:59:31;;;;;;;7.30;6.70;;;14.70;99.90;;;;;;5001069;28;20176;-39
2023/06/12 03:02:01;;;;;;;6.90;6.23;;;14.70;99.90;;;;;;5013569;28;20183;-41
2023/06/12 03:04:39;;;;;;;7.57;6.87;;;14.80;99.90;;;;;;4989838;28;20180;-37
2023/06/12 03:07:06;;;;;;;6.83;6.20;;;14.80;99.90;;;;;;4993074;28;20214;-38
2023/06/12 03:09:33;;;;;;;7.13;6.43;;;14.70;99.90;;;;;;5001994;28;20238;-41
2023/06/12 03:12:00;;;;;;;7.63;6.83;;;14.80;99.90;;;;;;5009114;28;20206;-38
2023/06/12 03:14:26;;;;;;;8.30;7.50;;;14.80;99.90;;;;;;4976463;28;20179;-40
2023/06/12 03:16:52;;;;;;;7.33;6.63;;;14.80;99.90;;;;;;4996547;28;20202;-41
2023/06/12 03:19:18;;;;;;;8.00;7.30;;;14.90;99.90;;;;;;4983493;28;20234;-39
2023/06/12 03:21:44;;;;;;;8.00;7.30;;;14.80;99.90;;;;;;5000688;28;20222;-36
2023/06/12 03:24:10;;;;;;;8.33;7.00;;;14.80;99.90;;;;;;4985855;28;20183;-39
2023/06/12 03:26:38;;;;;;;8.53;7.73;;;14.80;99.90;;;;;;5011994;28;20215;-39
2023/06/12 03:29:05;;;;;;;7.90;7.13;;;14.80;99.90;;;;;;4993089;28;20178;-36
2023/06/12 03:31:32;;;;;;;7.73;6.93;;;14.70;99.90;;;;;;5000618;28;20273;-39
2023/06/12 03:34:00;;;;;;;7.30;6.60;;;14.60;99.90;;;;;;5012552;28;20178;-38
2023/06/12 03:36:28;;;;;;;7.47;6.77;;;14.50;99.90;;;;;;5011018;28;20262;-38
2023/06/12 03:38:55;;;;;;;7.67;6.97;;;14.40;99.90;;;;;;4988401;28;20238;-39
2023/06/12 03:41:22;;;;;;;8.17;7.37;;;14.30;99.90;;;;;;5007678;28;20187;-35
2023/06/12 03:43:48;;;;;;;8.23;7.27;;;14.30;99.90;;;;;;4997505;28;20215;-39
2023/06/12 03:46:17;;;;;;;7.77;7.07;;;14.30;99.90;;;;;;4991989;28;20230;-40
2023/06/12 03:48:43;;;;;;;7.27;6.57;;;14.30;99.90;;;;;;5009001;28;20274;-35
2023/06/12 03:51:10;;;;;;;7.47;6.77;;;14.30;99.90;;;;;;5009672;28;20230;-39
2023/06/12 03:53:39;;;;;;;7.70;7.03;;;14.30;99.90;;;;;;5018965;28;20179;-42
2023/06/12 03:56:05;;;;;;;7.50;6.80;;;14.20;99.90;;;;;;4998770;28;20199;-41
2023/06/12 03:58:31;;;;;;;8.37;7.37;;;14.00;99.90;;;;;;5002883;28;20210;-38
2023/06/12 04:00:57;;;;;;;7.97;6.47;;;14.00;99.90;;;;;;5010743;28;20210;-41
2023/06/12 04:03:24;;;;;;;8.23;7.43;;;14.10;99.90;;;;;;4985181;28;20344;-41
2023/06/12 04:05:52;;;;;;;7.87;7.17;;;14.20;99.90;;;;;;4986741;28;20218;-38
2023/06/12 04:08:18;;;;;;;10.87;6.70;;;14.20;99.90;;;;;;4990838;28;20238;-39
2023/06/12 04:10:44;;;;;;;7.13;6.43;;;14.20;99.90;;;;;;4997185;28;20217;-40
2023/06/12 04:13:13;;;;;;;7.97;7.27;;;14.30;99.90;;;;;;5011045;28;20184;-37
2023/06/12 04:15:39;;;;;;;7.23;6.63;;;14.30;99.90;;;;;;4994942;28;20187;-41
2023/06/12 04:18:09;;;;;;;8.10;7.33;;;14.40;99.90;;;;;;5010035;28;20180;-38
2023/06/12 04:20:38;;;;;;;7.70;7.00;;;14.30;99.90;;;;;;4997029;28;20246;-40
2023/06/12 04:23:11;;;;;;;7.73;6.73;;;14.40;99.90;;;;;;5015835;28;20198;-43
2023/06/12 04:25:37;;;;;;;7.90;7.10;;;14.40;99.90;;;;;;5005587;28;20204;-39
2023/06/12 04:28:03;;;;;;;8.40;7.00;;;14.50;99.90;;;;;;4990564;28;20758;-39
2023/06/12 04:30:31;;;;;;;7.93;7.13;;;14.50;99.90;;;;;;5003184;28;20278;-39
2023/06/12 04:32:58;;;;;;;8.87;7.50;;;14.60;99.90;;;;;;4999637;28;20194;-41
2023/06/12 04:35:25;;;;;;;8.33;7.50;;;14.70;99.90;;;;;;4994519;28;20232;-38
2023/06/12 04:37:52;;;;;;;7.57;6.83;;;14.70;99.90;;;;;;4992972;28;20203;-38
2023/06/12 04:40:20;;;;;;;8.27;7.47;;;14.80;99.90;;;;;;5001935;28;20188;-39
2023/06/12 04:42:46;;;;;;;8.20;7.03;;;14.80;99.90;;;;;;5006477;28;20183;-39
2023/06/12 04:45:13;;;;;;;8.03;7.33;;;14.80;99.90;;;;;;4985917;28;20187;-41
2023/06/12 04:47:42;;;;;;;9.43;7.50;;;14.90;99.90;;;;;;4989597;28;20230;-40
2023/06/12 04:50:10;;;;;;;8.40;7.20;;;14.90;99.90;;;;;;4994115;28;20179;-38
2023/06/12 04:52:37;;;;;;;8.13;7.33;;;14.90;99.90;;;;;;4998508;28;20187;-39
2023/06/12 04:55:08;;;;;;;7.97;7.27;;;15.00;99.90;;;;;;4994829;28;20274;-37
2023/06/12 04:57:39;;;;;;;8.77;7.80;;;15.00;99.90;;;;;;4992882;28;20206;-39
2023/06/12 05:00:06;;;;;;;10.03;7.73;;;15.00;99.90;;;;;;5010555;28;20183;-39
2023/06/12 05:02:34;;;;;;;8.50;7.80;;;15.10;99.90;;;;;;5014635;28;20214;-39
2023/06/12 05:05:01;;;;;;;8.63;7.87;;;15.20;99.90;;;;;;4998990;28;20223;-36
2023/06/12 05:07:27;;;;;;;9.33;7.60;;;15.20;99.90;;;;;;5008062;28;20305;-38
2023/06/12 05:09:58;;;;;;;9.50;8.53;;;15.20;99.90;;;;;;5009249;28;20183;-38
2023/06/12 05:12:24;;;;;;;11.87;7.67;;;15.20;99.90;;;;;;4992050;28;20176;-36
2023/06/12 05:14:49;;;;;;;8.97;7.93;;;15.30;99.90;;;;;;4992143;28;20211;-39
2023/06/12 05:17:15;;;;;;;9.47;7.80;;;15.40;99.90;;;;;;4997761;28;20303;-41
2023/06/12 05:19:41;;;;;;;9.47;7.50;;;15.50;99.90;;;;;;4999136;28;20274;-36
2023/06/12 05:22:08;;;;;;;7.97;7.17;;;15.60;99.90;;;;;;4993236;28;20194;-36
2023/06/12 05:24:35;;;;;;;8.00;7.27;;;15.70;99.90;;;;;;5016949;28;20192;-40
2023/06/12 05:27:01;;;;;;;12.50;7.70;;;15.80;99.90;;;;;;4985029;28;20211;-38
2023/06/12 05:29:27;;;;;;;8.57;7.67;;;15.90;99.90;;;;;;5008606;28;20183;-39
2023/06/12 05:31:53;;;;;;;9.33;8.33;;;16.10;99.90;;;;;;5000447;28;20214;-39
2023/06/12 05:34:19;;;;;;;8.93;8.03;;;16.20;99.90;;;;;;5017259;28;20180;-42
2023/06/12 05:36:45;;;;;;;9.00;8.17;;;16.30;99.90;;;;;;4991274;28;20215;-38
2023/06/12 05:39:11;;;;;;;8.70;7.83;;;16.50;99.90;;;;;;4977105;28;20192;-41
2023/06/12 05:41:37;;;;;;;9.13;8.13;;;16.60;99.90;;;;;;5003172;28;20194;-41
2023/06/12 05:44:05;;;;;;;8.40;7.60;;;16.70;99.90;;;;;;4991541;28;20194;-40
2023/06/12 05:46:31;;;;;;;9.40;7.70;;;16.90;99.90;;;;;;4997544;28;20250;-37
2023/06/12 05:48:59;;;;;;;10.23;7.40;;;17.00;99.90;;;;;;5006456;28;20266;-43
2023/06/12 05:51:26;;;;;;;8.00;7.20;;;17.10;99.90;;;;;;4991306;28;20558;-39
2023/06/12 05:53:52;;;;;;;10.33;7.67;;;17.30;99.90;;;;;;4996230;28;20210;-41
2023/06/12 05:56:18;;;;;;;8.13;7.30;;;17.40;99.90;;;;;;4996219;28;20203;-38
2023/06/12 05:58:52;;;;;;;7.73;7.03;;;17.60;99.90;;;;;;5013745;28;20179;-40
2023/06/12 06:01:21;;;;;;;9.25;6.88;;;17.80;99.90;;;;;;4991772;28;20183;-39
2023/06/12 06:03:56;;;;;;;7.80;7.00;;;17.90;99.90;;;;;;5004877;28;20194;-39
2023/06/12 06:06:24;;;;;;;8.52;7.70;;;18.10;99.90;;;;;;4988530;28;20250;-41
2023/06/12 06:08:51;;;;;;;7.60;6.88;;;18.30;99.90;;;;;;5011297;28;20181;-41
2023/06/12 06:11:17;;;;;;;7.75;7.03;;;18.50;99.90;;;;;;5002267;28;20175;-37
2023/06/12 06:13:44;;;;;;;9.07;7.25;;;18.60;99.90;;;;;;4995601;28;20190;-38
2023/06/12 06:16:11;;;;;;;7.85;6.90;;;18.80;99.90;;;;;;4993358;28;20238;-40
2023/06/12 06:18:40;;;;;;;8.13;7.32;;;19.00;99.90;;;;;;4984718;28;20179;-41
2023/06/12 06:21:06;;;;;;;7.28;6.57;;;19.20;99.90;;;;;;5002274;28;20187;-40
2023/06/12 06:23:33;;;;;;;8.65;6.70;;;19.30;99.90;;;;;;4986684;28;20191;-40
2023/06/12 06:26:00;;;;;;;7.85;7.00;;;19.40;99.90;;;;;;4999055;28;20239;-43
2023/06/12 06:28:26;;;;;;;8.38;7.18;;;19.60;99.90;;;;;;5005041;28;20207;-41
2023/06/12 06:30:54;;;;;;;6.97;6.38;;;19.70;99.90;;;;;;5000996;28;20263;-41
2023/06/12 06:33:22;;;;;;;7.20;6.50;;;19.90;99.90;;;;;;5006243;28;20187;-41
2023/06/12 06:35:50;;;;;;;6.72;6.03;;;20.10;99.90;;;;;;4991748;28;20221;-38
2023/06/12 06:38:20;;;;;;;6.38;5.78;;;20.40;99.90;;;;;;4988732;28;20187;-42
2023/06/12 06:40:47;;;;;;;6.35;5.72;;;20.60;99.90;;;;;;5001475;28;20207;-41
2023/06/12 06:43:14;;;;;;;6.18;5.32;;;20.80;99.90;;;;;;4992267;28;20188;-42
2023/06/12 06:45:43;;;;;;;7.10;5.88;;;21.10;99.90;;;;;;4999122;28;20183;-41
2023/06/12 06:48:12;;;;;;;6.03;5.53;;;21.40;99.90;;;;;;5005444;28;20218;-41
2023/06/12 06:50:40;;;;;;;6.88;5.82;;;21.60;99.90;;;;;;5006354;28;20186;-40
2023/06/12 06:53:07;;;;;;;6.35;5.75;;;21.80;99.90;;;;;;4996503;28;20278;-41
2023/06/12 06:55:34;;;;;;;5.80;5.30;;;22.00;99.90;;;;;;5000334;28;20188;-41
2023/06/12 06:58:04;;;;;;;5.47;4.97;;;22.20;99.90;;;;;;5014921;28;20191;-39
2023/06/12 07:00:34;;;;;;;5.40;4.90;;;22.40;99.90;;;;;;5004007;28;20211;-43
2023/06/12 07:03:00;;;;;;;5.53;5.00;;;22.60;99.90;;;;;;5000805;28;20210;-39
2023/06/12 07:05:27;;;;;;;7.05;4.80;;;22.70;99.90;;;;;;5021151;28;20262;-42
2023/06/12 07:07:54;;;;;;;6.50;5.35;;;23.00;99.90;;;;;;5007955;28;20255;-42
2023/06/12 07:10:21;;;;;;;5.90;5.30;;;23.10;99.90;;;;;;5007803;28;20175;-42
2023/06/12 07:12:56;;;;;;;5.82;4.80;;;23.30;99.90;;;;;;5000938;28;20278;-41
2023/06/12 07:15:28;;;;;;;5.80;5.25;;;23.40;99.90;;;;;;5000748;28;20215;-40
2023/06/12 07:17:55;;;;;;;5.32;4.82;;;23.50;99.90;;;;;;5004608;28;20184;-41
2023/06/12 07:20:21;;;;;;;5.65;5.15;;;23.60;99.90;;;;;;5006737;28;20187;-43
2023/06/12 07:22:48;;;;;;;5.57;5.07;;;23.80;99.90;;;;;;4986670;28;20249;-43
2023/06/12 07:25:14;;;;;;;5.90;5.30;;;23.90;99.90;;;;;;5008991;28;20191;-43
2023/06/12 07:27:41;;;;;;;5.90;5.40;;;24.10;99.90;;;;;;5010452;28;20294;-43
2023/06/12 07:30:09;;;;;;;6.15;5.65;;;24.20;99.90;;;;;;4993209;28;20183;-43
2023/06/12 07:32:37;;;;;;;5.15;4.70;;;24.30;99.90;;;;;;5025300;28;20183;-43
2023/06/12 07:35:05;;;;;;;5.82;5.22;;;24.30;99.90;;;;;;5013818;28;20184;-42
2023/06/12 07:37:35;;;;;;;7.20;4.93;;;24.50;99.90;;;;;;4992138;28;20213;-43
2023/06/12 07:40:05;;;;;;;9.38;5.40;;;24.60;99.90;;;;;;4996157;28;20183;-43
2023/06/12 07:42:33;;;;;;;6.57;5.07;;;24.60;99.90;;;;;;4994088;28;20195;-43
2023/06/12 07:44:59;;;;;;;5.88;5.32;;;24.30;99.90;;;;;;4993714;28;20183;-43
2023/06/12 07:47:26;;;;;;;5.40;4.90;;;24.30;99.90;;;;;;4977861;28;20214;-41
2023/06/12 07:49:52;;;;;;;5.82;5.30;;;24.40;99.90;;;;;;4992739;28;20172;-42
2023/06/12 07:52:20;;;;;;;6.00;5.50;;;24.50;99.90;;;;;;5006264;28;20190;-40
2023/06/12 07:54:48;;;;;;;5.15;4.75;;;24.70;99.90;;;;;;5004380;28;20178;-41
2023/06/12 07:57:14;;;;;;;5.80;5.15;;;24.70;99.90;;;;;;5003310;28;20211;-42
2023/06/12 07:59:40;;;;;;;5.70;5.20;;;24.90;99.90;;;;;;5002219;28;20188;-40
2023/06/12 08:02:07;;;;;;;8.15;5.05;;;24.90;99.90;;;;;;4981099;28;20283;-43
2023/06/12 08:04:33;;;;;;;6.00;5.50;;;25.10;99.90;;;;;;4992161;28;20191;-43
2023/06/12 08:07:00;;;;;;;6.32;5.50;;;25.10;99.90;;;;;;4994117;28;20215;-43
2023/06/12 08:09:29;;;;;;;5.60;4.88;;;25.30;99.90;;;;;;4978357;28;20245;-44
2023/06/12 08:11:55;;;;;;;5.88;5.10;;;25.30;99.90;;;;;;4997241;28;20179;-43
2023/06/12 08:14:21;;;;;;;5.65;5.18;;;25.50;99.90;;;;;;4979190;28;20180;-43
2023/06/12 08:16:49;;;;;;;6.55;5.18;;;25.60;99.90;;;;;;5017553;28;20233;-41
2023/06/12 08:19:15;;;;;;;5.65;4.97;;;25.50;99.90;;;;;;5031257;28;20281;-41
2023/06/12 08:21:41;;;;;;;5.85;4.78;;;25.70;99.90;;;;;;5030253;28;20273;-41
2023/06/12 08:24:09;;;;;;;5.28;4.88;;;25.80;99.90;;;;;;5031368;28;20223;-43
2023/06/12 08:26:35;;;;;;;5.45;4.95;;;25.90;99.90;;;;;;5014331;28;20278;-44
2023/06/12 08:29:02;;;;;;;5.65;5.07;;;26.00;99.90;;;;;;5006293;28;20174;-43
2023/06/12 08:31:34;;;;;;;4.65;3.90;;;26.10;99.90;;;;;;5007021;28;20193;-43
2023/06/12 08:34:00;;;;;;;5.57;5.07;;;26.10;99.90;;;;;;5017575;28;20262;-43
2023/06/12 08:36:26;;;;;;;5.22;4.82;;;26.30;99.90;;;;;;5002902;28;20203;-43
2023/06/12 08:38:52;;;;;;;4.90;4.50;;;26.50;99.90;;;;;;5027755;28;20175;-43
2023/06/12 08:41:20;;;;;;;5.15;4.75;;;26.60;99.90;;;;;;5014829;28;20209;-39
2023/06/12 08:43:47;;;;;;;5.20;4.80;;;26.70;99.90;;;;;;5002326;28;20179;-42
2023/06/12 08:46:17;;;;;;;5.75;4.70;;;26.80;99.90;;;;;;4994517;28;20196;-43
2023/06/12 08:48:45;;;;;;;5.63;4.75;;;26.80;99.90;;;;;;5013772;28;20206;-43
2023/06/12 08:51:11;;;;;;;6.78;4.72;;;26.90;99.90;;;;;;5014006;28;20182;-43
2023/06/12 08:53:39;;;;;;;4.78;4.38;;;27.00;99.90;;;;;;5026636;28;20237;-44
2023/06/12 08:56:07;;;;;;;5.82;4.40;;;27.10;99.90;;;;;;4994121;28;20199;-41
2023/06/12 08:58:33;;;;;;;4.90;4.45;;;27.40;99.90;;;;;;5009672;28;20190;-43
2023/06/12 09:01:01;;;;;;;5.05;4.65;;;27.60;99.90;;;;;;4994310;28;20180;-43
2023/06/12 09:03:27;;;;;;;5.05;4.53;;;27.80;99.90;;;;;;5018848;28;20191;-43
2023/06/12 09:05:57;;;;;;;4.80;4.40;;;27.80;99.90;;;;;;5023340;28;20210;-43
2023/06/12 09:08:22;;;;;;;5.03;4.30;;;28.00;99.40;;;;;;5013789;28;20225;-43
2023/06/12 09:10:49;;;;;;;5.72;4.25;;;28.10;98.50;;;;;;5022533;28;20175;-43
2023/06/12 09:13:15;;;;;;;4.50;4.20;;;28.20;97.20;;;;;;5022407;28;20229;-43
2023/06/12 09:15:50;;;;;;;6.95;4.25;;;28.20;96.70;;;;;;5013553;28;20174;-42
2023/06/12 09:18:19;;;;;;;6.07;4.80;;;28.20;96.90;;;;;;5029327;28;20200;-43
2023/06/12 09:20:48;;;;;;;5.47;4.95;;;28.20;97.60;;;;;;5011099;28;20187;-43
2023/06/12 09:23:15;;;;;;;7.82;5.10;;;28.20;97.60;;;;;;5001625;28;20198;-43
2023/06/12 09:25:43;;;;;;;4.90;4.40;;;28.20;97.00;;;;;;5012251;28;20190;-43
2023/06/12 09:28:10;;;;;;;5.25;4.50;;;28.30;96.20;;;;;;5023869;28;20257;-42
2023/06/12 09:30:41;;;;;;;6.00;4.45;;;28.50;96.20;;;;;;4993856;28;20267;-43
2023/06/12 09:33:08;;;;;;;4.97;4.30;;;28.50;95.10;;;;;;5004586;28;20210;-43
2023/06/12 09:35:50;;;;;;;8.25;4.57;;;28.70;95.40;;;;;;5013774;28;20179;-42
2023/06/12 09:38:15;;;;;;;6.68;4.57;;;28.60;93.80;;;;;;5014137;28;20186;-43
2023/06/12 09:40:41;;;;;;;5.40;4.35;;;28.50;92.00;;;;;;4993918;28;20238;-43
2023/06/12 09:43:07;;;;;;;4.07;3.78;;;28.50;92.60;;;;;;5007971;28;20211;-43
2023/06/12 09:45:33;;;;;;;4.70;4.30;;;28.50;93.40;;;;;;5011857;28;20213;-43
2023/06/12 09:47:59;;;;;;;5.00;4.60;;;28.50;93.90;;;;;;4995005;28;20228;-43
2023/06/12 09:50:25;;;;;;;4.80;4.40;;;28.70;93.20;;;;;;5024430;28;20187;-43
2023/06/12 09:52:58;;;;;;;5.72;4.40;;;28.80;93.10;;;;;;5012743;28;20174;-43
2023/06/12 09:55:26;;;;;;;5.53;4.55;;;28.90;92.90;;;;;;5029795;28;20186;-44
2023/06/12 09:57:53;;;;;;;5.50;4.40;;;28.80;92.30;;;;;;5012702;28;20221;-43
2023/06/12 10:00:20;;;;;;;4.25;3.95;;;29.00;92.70;;;;;;5015987;28;20190;-43
2023/06/12 10:02:57;;;;;;;4.45;4.05;;;29.00;91.80;;;;;;5026290;28;20268;-43
2023/06/12 10:05:35;;;;;;;5.10;4.57;;;29.20;92.60;;;;;;5001055;28;20217;-43
2023/06/12 10:08:03;;;;;;;5.20;4.55;;;29.30;93.00;;;;;;4998452;28;20249;-43
2023/06/12 10:10:30;;;;;;;5.18;4.57;;;29.50;92.00;;;;;;4993513;28;20175;-43
2023/06/12 10:12:57;;;;;;;5.72;5.10;;;29.80;92.20;;;;;;4993460;28;20171;-42
2023/06/12 10:15:24;;;;;;;5.38;4.90;;;29.90;91.80;;;;;;4994619;28;20178;-43
2023/06/12 10:17:52;;;;;;;4.40;3.83;;;29.80;90.90;;;;;;5025820;28;20214;-44
2023/06/12 10:20:20;;;;;;;5.25;4.47;;;29.90;90.20;;;;;;5014879;28;20194;-42
2023/06/12 10:22:47;;;;;;;5.50;4.32;;;29.90;90.20;;;;;;4994472;28;20234;-40
2023/06/12 10:25:14;;;;;;;5.07;4.68;;;29.70;88.90;;;;;;5013685;28;20183;-44
2023/06/12 10:27:41;;;;;;;4.72;4.30;;;29.80;90.10;;;;;;5010369;28;20213;-40
2023/06/12 10:30:27;;;;;;;4.70;4.18;;;29.30;91.20;;;;;;5017997;28;20176;-43
2023/06/12 10:32:53;;;;;;;6.97;4.70;;;29.60;91.60;;;;;;5003746;28;20266;-43
2023/06/12 10:35:31;;;;;;;4.72;4.32;;;29.60;91.10;;;;;;4997327;28;20274;-43
2023/06/12 10:37:57;;;;;;;5.30;4.70;;;29.60;91.30;;;;;;5000500;28;20681;-43
2023/06/12 10:40:23;;;;;;;5.40;4.57;;;29.50;91.00;;;;;;5027731;28;20259;-43
2023/06/12 10:42:52;;;;;;;5.53;5.03;;;29.50;91.20;;;;;;5013826;28;20846;-43
2023/06/12 10:45:27;;;;;;;4.88;4.38;;;29.70;90.50;;;;;;5003708;28;20187;-39
2023/06/12 10:48:04;;;;;;;4.85;4.45;;;29.80;90.20;;;;;;5016106;28;20209;-44
2023/06/12 10:50:36;;;;;;;4.75;4.35;;;29.80;90.80;;;;;;5009175;28;20228;-42
2023/06/12 10:53:23;;;;;;;5.03;4.53;;;29.90;90.50;;;;;;5004220;28;20179;-42
2023/06/12 10:56:08;;;;;;;5.10;4.70;;;30.00;90.70;;;;;;5019702;28;20206;-42
2023/06/12 10:58:56;;;;;;;5.30;4.80;;;30.00;90.50;;;;;;5025414;28;20182;-42
2023/06/12 11:01:24;;;;;;;5.60;4.93;;;30.10;90.30;;;;;;5022689;28;20238;-42
2023/06/12 11:03:54;;;;;;;5.55;5.03;;;30.20;90.00;;;;;;5020646;28;20186;-41
2023/06/12 11:06:28;;;;;;;5.47;4.90;;;30.20;90.10;;;;;;5000997;28;20211;-42
2023/06/12 11:09:09;;;;;;;5.90;4.90;;;30.10;88.20;;;;;;5032542;28;20206;-40
2023/06/12 11:11:40;;;;;;;5.03;4.53;;;30.20;90.30;;;;;;5012719;28;20244;-41
2023/06/12 11:14:06;;;;;;;5.22;4.82;;;30.40;90.10;;;;;;5009386;28;20218;-43
2023/06/12 11:16:39;;;;;;;5.53;5.00;;;30.50;88.90;;;;;;5011947;28;20207;-42
2023/06/12 11:19:10;;;;;;;5.65;5.15;;;30.60;90.00;;;;;;5002754;28;20181;-41
2023/06/12 11:21:38;;;;;;;5.30;4.70;;;30.60;88.90;;;;;;5031340;28;20257;-42
2023/06/12 11:24:07;;;;;;;4.70;4.35;;;30.70;88.80;;;;;;5013351;28;20267;-42
2023/06/12 11:26:37;;;;;;;5.53;5.03;;;30.90;88.10;;;;;;5027675;28;20210;-40
2023/06/12 11:29:19;;;;;;;5.70;5.20;;;30.90;86.30;;;;;;5013647;28;20178;-42
2023/06/12 11:31:50;;;;;;;5.03;4.63;;;30.90;86.00;;;;;;5028399;28;20181;-42
2023/06/12 11:34:17;;;;;;;6.50;5.18;;;30.90;85.80;;;;;;5005556;28;20179;-41
2023/06/12 11:36:44;;;;;;;5.57;4.88;;;31.00;85.90;;;;;;5025488;28;20312;-43
2023/06/12 11:39:17;;;;;;;5.32;4.75;;;30.90;85.50;;;;;;5002513;28;20183;-40
2023/06/12 11:41:47;;;;;;;5.82;4.88;;;30.70;86.60;;;;;;5007901;28;20208;-42
2023/06/12 11:44:16;;;;;;;5.05;4.57;;;30.70;85.00;;;;;;5015525;28;20267;-42
2023/06/12 11:46:44;;;;;;;4.60;4.13;;;30.70;82.70;;;;;;5009289;28;20258;-42
2023/06/12 11:49:12;;;;;;;6.55;4.88;;;30.70;83.50;;;;;;5000690;28;20174;-42
2023/06/12 11:51:39;;;;;;;5.65;4.28;;;30.80;83.00;;;;;;5026295;28;20266;-42
2023/06/12 11:54:07;;;;;;;6.05;5.10;;;31.00;83.10;;;;;;5004395;28;20205;-43
2023/06/12 11:56:33;;;;;;;5.97;4.60;;;31.20;81.50;;;;;;5027405;28;20229;-43
2023/06/12 11:58:59;;;;;;;5.28;4.82;;;31.10;81.40;;;;;;5006046;28;20209;-44
2023/06/12 12:01:27;;;;;;;5.53;5.03;;;31.20;82.60;;;;;;5032001;28;20247;-42
2023/06/12 12:03:58;;;;;;;5.10;4.70;;;31.00;83.50;;;;;;5003832;28;20194;-41
2023/06/12 12:06:26;;;;;;;5.18;4.68;;;31.00;85.00;;;;;;4994305;28;20227;-43
2023/06/12 12:08:56;;;;;;;4.40;4.10;;;30.90;83.50;;;;;;5025974;28;20305;-42
2023/06/12 12:11:28;;;;;;;5.70;4.60;;;30.80;84.30;;;;;;5005642;28;20241;-41
2023/06/12 12:14:04;;;;;;;4.63;4.22;;;31.00;84.50;;;;;;5018828;28;20187;-42
2023/06/12 12:16:42;;;;;;;4.85;4.40;;;31.00;84.20;;;;;;5006029;28;20209;-42
2023/06/12 12:19:26;;;;;;;4.95;4.55;;;31.20;81.80;;;;;;5008175;28;20210;-42
2023/06/12 12:21:56;;;;;;;4.75;4.43;;;31.40;83.30;;;;;;5019890;28;20214;-40
2023/06/12 12:24:26;;;;;;;5.05;4.65;;;31.30;81.50;;;;;;5020083;28;20182;-41
2023/06/12 12:26:57;;;;;;;5.20;4.60;;;31.50;80.50;;;;;;5019357;28;20219;-40
2023/06/12 12:29:23;;;;;;;5.35;4.95;;;31.50;80.30;;;;;;5010260;28;20181;-41
2023/06/12 12:31:50;;;;;;;5.50;4.82;;;31.60;78.80;;;;;;5022199;28;20180;-41
2023/06/12 12:34:16;;;;;;;5.57;4.97;;;31.70;79.50;;;;;;5002645;28;20252;-41
2023/06/12 12:36:42;;;;;;;5.57;4.72;;;31.90;79.40;;;;;;5022995;28;20203;-42
2023/06/12 12:39:09;;;;;;;8.30;5.10;;;31.50;76.00;;;;;;5009626;28;20266;-42
2023/06/12 12:41:36;;;;;;;6.80;4.80;;;31.70;77.90;;;;;;5003039;28;20236;-41
2023/06/12 12:44:05;;;;;;;5.63;4.65;;;31.60;79.80;;;;;;5019457;28;20201;-43
2023/06/12 12:46:32;;;;;;;5.82;4.68;;;31.50;77.60;;;;;;5023349;28;20201;-41
2023/06/12 12:48:58;;;;;;;6.10;4.82;;;31.50;80.20;;;;;;5010180;28;20256;-42
2023/06/12 12:51:24;;;;;;;5.20;4.70;;;31.80;78.00;;;;;;5015409;28;20286;-43
2023/06/12 12:53:52;;;;;;;5.28;4.88;;;31.80;77.90;;;;;;5004398;28;20199;-40